Time;durP1;ratioP1;P1;durP2;ratioP2;P2;SDS_P1;SDS_P2;PMS_P1;PMS_P2;Temp;Humidity;BMP_temperature;BMP_pressure;BME280_temperature;BME280_humidity;BME280_pressure;Samples;Min_cycle;Max_cycle;Signal;HPM_P1;HPM_P2
2020/12/04 00:01:03;;;;;;;3.23;1.93;;;;;;;-5.77;82.83;92730.99;1749663;79;21178;-77
2020/12/04 00:03:33;;;;;;;2.40;2.00;;;;;;;-5.80;83.06;92733.48;1806212;78;21337;-76
2020/12/04 00:06:01;;;;;;;1.60;1.50;;;;;;;-5.75;83.42;92730.16;1818835;77;21645;-77
2020/12/04 00:08:29;;;;;;;15.00;8.10;;;;;;;-5.73;83.59;92733.25;1808249;78;21201;-79
2020/12/04 00:10:58;;;;;;;40.20;19.70;;;;;;;-5.70;83.30;92735.84;1809512;77;21611;-81
2020/12/04 00:13:26;;;;;;;46.13;22.97;;;;;;;-5.74;82.60;92742.30;1742262;81;21138;-80
2020/12/04 00:15:55;;;;;;;40.37;18.00;;;;;;;-5.79;82.23;92737.68;1799969;78;22242;-82
2020/12/04 00:18:25;;;;;;;64.43;27.03;;;;;;;-5.86;81.82;92738.16;1769402;79;21669;-80
2020/12/04 00:20:53;;;;;;;63.37;26.23;;;;;;;-5.96;81.71;92735.83;1774435;80;21200;-77
2020/12/04 00:23:21;;;;;;;32.73;14.47;;;;;;;-6.06;81.75;92739.53;1814015;78;21788;-76
2020/12/04 00:25:51;;;;;;;16.73;8.83;;;;;;;-6.13;81.75;92729.42;1779701;79;21219;-76
2020/12/04 00:28:20;;;;;;;37.87;17.73;;;;;;;-6.17;82.27;92733.77;1747979;80;22763;-78
2020/12/04 00:30:48;;;;;;;49.20;23.30;;;;;;;-6.26;82.48;92730.30;1734028;82;21200;-78
2020/12/04 00:33:16;;;;;;;35.67;16.23;;;;;;;-6.28;82.65;92732.49;1736032;80;21227;-77
2020/12/04 00:35:45;;;;;;;28.27;13.67;;;;;;;-6.26;82.48;92730.30;1739460;82;21211;-78
2020/12/04 00:38:14;;;;;;;18.83;8.13;;;;;;;-6.26;82.58;92736.92;1817436;78;21143;-76
2020/12/04 00:40:45;;;;;;;11.67;5.73;;;;;;;-6.26;82.83;92728.98;1816378;78;21468;-77
2020/12/04 00:43:13;;;;;;;10.90;6.50;;;;;;;-6.29;83.18;92724.84;1802424;79;21194;-80
2020/12/04 00:45:41;;;;;;;5.57;2.50;;;;;;;-6.28;83.59;92721.91;1773817;80;21520;-76
2020/12/04 00:48:11;;;;;;;19.80;9.13;;;;;;;-6.31;83.58;92730.45;1760396;81;21121;-77
2020/12/04 00:50:39;;;;;;;7.07;3.60;;;;;;;-6.29;83.85;92730.91;1843111;77;21151;-77
2020/12/04 00:53:07;;;;;;;13.97;6.37;;;;;;;-6.27;83.93;92728.75;1772268;77;21195;-77
2020/12/04 00:55:38;;;;;;;21.83;9.90;;;;;;;-6.24;83.88;92728.66;1752324;80;21160;-79
2020/12/04 00:58:07;;;;;;;22.53;10.43;;;;;;;-6.25;83.88;92726.56;1753931;80;21164;-77
2020/12/04 01:00:36;;;;;;;44.43;18.03;;;;;;;-6.22;83.90;92716.69;1718309;82;21325;-78
2020/12/04 01:03:05;;;;;;;19.77;9.87;;;;;;;-6.21;83.19;92712.95;1732822;82;21187;-80
2020/12/04 01:05:33;;;;;;;21.67;9.83;;;;;;;-6.26;82.65;92705.16;1828568;77;21665;-79
2020/12/04 01:08:01;;;;;;;32.43;16.73;;;;;;;-6.29;82.63;92701.03;1805925;78;21164;-80
2020/12/04 01:10:33;;;;;;;34.80;16.00;;;;;;;-6.31;82.50;92699.25;1794233;77;21647;-76
2020/12/04 01:13:01;;;;;;;40.90;18.33;;;;;;;-6.36;82.41;92698.31;1777990;79;21137;-77
2020/12/04 01:15:30;;;;;;;36.13;17.43;;;;;;;-6.41;82.46;92689.72;1782842;79;21125;-81
2020/12/04 01:17:58;;;;;;;39.17;17.30;;;;;;;-6.44;82.29;92688.45;1749824;80;21430;-79
2020/12/04 01:20:26;;;;;;;36.67;14.33;;;;;;;-6.54;82.24;92689.28;1746020;80;21582;-79
2020/12/04 01:22:55;;;;;;;32.50;14.37;;;;;;;-6.63;82.30;92691.35;1727747;80;21179;-82
2020/12/04 01:25:23;;;;;;;35.63;16.27;;;;;;;-6.68;82.70;92695.47;1747919;79;21199;-79
2020/12/04 01:27:51;;;;;;;39.53;17.20;;;;;;;-6.70;82.96;92693.66;1787304;78;21182;-77
2020/12/04 01:30:19;;;;;;;30.57;16.00;;;;;;;-6.74;83.04;92694.03;1817081;78;21778;-79
2020/12/04 01:32:48;;;;;;;41.80;19.07;;;;;;;-6.76;83.00;92693.58;1816697;79;21170;-79
2020/12/04 01:35:17;;;;;;;32.90;15.60;;;;;;;-6.77;82.94;92689.89;1763148;79;20982;-77
2020/12/04 01:37:45;;;;;;;47.17;20.50;;;;;;;-6.77;82.89;92695.98;1784073;79;21148;-78
2020/12/04 01:40:14;;;;;;;48.83;23.33;;;;;;;-6.80;82.84;92687.88;1774825;80;21164;-80
2020/12/04 01:42:42;;;;;;;43.90;21.80;;;;;;;-6.81;82.90;92690.27;1782923;78;21582;-77
2020/12/04 01:45:11;;;;;;;38.83;18.43;;;;;;;-6.80;82.85;92683.37;1785059;80;21238;-79
2020/12/04 01:47:40;;;;;;;29.37;13.47;;;;;;;-6.78;82.76;92680.41;1842218;77;21185;-76
2020/12/04 01:50:08;;;;;;;32.10;14.77;;;;;;;-6.74;82.80;92687.97;1820593;77;21808;-78
2020/12/04 01:52:38;;;;;;;22.83;11.23;;;;;;;-6.71;82.47;92683.40;1826410;77;21174;-77
2020/12/04 01:55:06;;;;;;;26.77;13.83;;;;;;;-6.72;82.81;92687.13;1851295;77;21623;-81
2020/12/04 01:57:35;;;;;;;29.93;13.93;;;;;;;-6.73;83.01;92681.07;1851905;77;22109;-75
2020/12/04 02:00:05;;;;;;;26.70;12.90;;;;;;;-6.72;82.92;92686.59;1849272;77;21050;-76
2020/12/04 02:02:36;;;;;;;26.60;13.50;;;;;;;-6.76;83.26;92690.16;1821856;77;21642;-79
2020/12/04 02:05:04;;;;;;;37.73;19.67;;;;;;;-6.76;83.51;92684.86;1836335;76;21027;-77
2020/12/04 02:07:46;;;;;;;40.07;17.80;;;;;;;-6.73;83.25;92679.75;1844565;77;21243;-75
2020/12/04 02:10:21;;;;;;;19.67;10.40;;;;;;;-6.75;82.64;92685.88;1833593;77;21166;-79
2020/12/04 02:12:50;;;;;;;30.63;14.77;;;;;;;-6.83;82.30;92689.81;1812594;78;21181;-78
2020/12/04 02:15:19;;;;;;;34.50;15.67;;;;;;;-6.87;82.55;92686.99;1804372;78;21191;-77
2020/12/04 02:17:56;;;;;;;20.67;10.33;;;;;;;-6.82;82.56;92688.72;1775874;79;21171;-78
2020/12/04 02:20:34;;;;;;;17.97;8.97;;;;;;;-6.83;82.41;92686.62;1734220;80;21182;-77
2020/12/04 02:23:02;;;;;;;10.32;5.75;;;;;;;-6.83;82.37;92681.88;1816255;78;21203;-76
2020/12/04 02:25:30;;;;;;;9.87;5.07;;;;;;;-6.79;82.53;92685.47;1783001;79;21198;-76
2020/12/04 02:27:59;;;;;;;9.70;4.90;;;;;;;-6.75;82.87;92683.23;1764702;80;21223;-75
2020/12/04 02:30:33;;;;;;;17.00;7.90;;;;;;;-6.75;82.94;92687.73;1780919;79;21175;-78
2020/12/04 02:33:02;;;;;;;26.87;12.07;;;;;;;-6.80;82.93;92695.27;1763791;80;21233;-76
2020/12/04 02:35:30;;;;;;;32.00;14.70;;;;;;;-6.83;82.89;92692.45;1739494;81;21614;-76
2020/12/04 02:37:59;;;;;;;35.63;16.80;;;;;;;-6.85;82.81;92692.20;1783850;77;21169;-74
2020/12/04 02:40:27;;;;;;;29.73;14.07;;;;;;;-6.88;82.80;92683.58;1795453;78;21155;-76
2020/12/04 02:42:56;;;;;;;31.57;16.03;;;;;;;-6.82;82.75;92688.72;1828589;78;21095;-83
2020/12/04 02:45:25;;;;;;;36.07;16.20;;;;;;;-6.85;82.18;92685.59;1769373;81;21705;-78
2020/12/04 02:47:53;;;;;;;36.97;17.50;;;;;;;-6.91;81.88;92690.01;1788995;79;21147;-78
2020/12/04 02:50:21;;;;;;;31.53;15.27;;;;;;;-6.97;81.97;92680.09;1783160;80;21199;-75
2020/12/04 02:52:49;;;;;;;32.57;14.23;;;;;;;-7.02;82.14;92674.17;1783105;80;21167;-80
2020/12/04 02:55:18;;;;;;;21.93;8.83;;;;;;;-7.02;82.33;92682.11;1799655;77;21262;-78
2020/12/04 02:57:46;;;;;;;28.97;12.97;;;;;;;-7.03;82.42;92677.37;1852077;77;21154;-79
2020/12/04 03:00:16;;;;;;;28.53;13.67;;;;;;;-7.06;82.47;92670.59;1770749;77;21147;-77
2020/12/04 03:02:44;;;;;;;15.20;7.03;;;;;;;-7.11;82.32;92693.42;1730904;79;21482;-76
2020/12/04 03:05:13;;;;;;;27.30;12.13;;;;;;;-7.17;82.40;92684.05;1740353;81;21184;-78
2020/12/04 03:07:41;;;;;;;42.33;18.50;;;;;;;-7.21;82.93;92680.45;1784137;77;21487;-76
2020/12/04 03:10:09;;;;;;;20.97;9.40;;;;;;;-7.22;82.99;92684.70;1737591;79;21265;-79
2020/12/04 03:12:38;;;;;;;21.03;10.23;;;;;;;-7.23;82.86;92679.96;1775399;80;21147;-75
2020/12/04 03:15:06;;;;;;;21.00;9.87;;;;;;;-7.20;83.37;92676.72;1783645;79;21148;-77
2020/12/04 03:17:34;;;;;;;11.27;6.20;;;;;;;-7.17;83.56;92667.42;1768438;79;21194;-77
2020/12/04 03:20:04;;;;;;;19.83;10.47;;;;;;;-7.16;83.65;92668.42;1768591;79;21634;-77
2020/12/04 03:22:34;;;;;;;22.20;11.23;;;;;;;-7.18;83.25;92657.94;1777930;80;21435;-76
2020/12/04 03:25:02;;;;;;;22.10;10.80;;;;;;;-7.21;83.24;92662.50;1713290;83;21270;-81
2020/12/04 03:27:31;;;;;;;26.60;13.83;;;;;;;-7.20;83.45;92668.80;1724317;82;21192;-82
2020/12/04 03:29:59;;;;;;;21.90;11.73;;;;;;;-7.14;83.52;92664.95;1763720;81;21134;-80
2020/12/04 03:32:28;;;;;;;15.40;7.90;;;;;;;-7.14;83.10;92668.91;1773959;80;21136;-76
2020/12/04 03:34:57;;;;;;;9.37;4.87;;;;;;;-7.16;83.01;92663.69;1797234;79;21198;-76
2020/12/04 03:37:27;;;;;;;6.40;4.10;;;;;;;-7.26;83.40;92669.99;1752633;80;21195;-79
2020/12/04 03:39:56;;;;;;;11.07;5.93;;;;;;;-7.27;83.88;92661.84;1809506;79;21184;-77
2020/12/04 03:42:24;;;;;;;15.80;6.80;;;;;;;-7.30;84.15;92659.02;1811349;79;21182;-80
2020/12/04 03:44:52;;;;;;;20.70;10.93;;;;;;;-7.32;84.20;92662.52;1809898;78;21119;-79
2020/12/04 03:47:21;;;;;;;19.80;11.03;;;;;;;-7.29;84.30;92665.88;1808212;79;21640;-80
2020/12/04 03:49:49;;;;;;;13.77;7.47;;;;;;;-7.28;83.98;92660.83;1739022;79;21652;-75
2020/12/04 03:52:20;;;;;;;11.50;6.33;;;;;;;-7.27;83.67;92663.16;1843135;77;21084;-76
2020/12/04 03:54:48;;;;;;;12.97;6.97;;;;;;;-7.19;83.86;92659.00;1809093;79;21131;-80
2020/12/04 03:57:16;;;;;;;9.83;5.50;;;;;;;-7.13;83.77;92648.00;1771947;80;21193;-78
2020/12/04 03:59:44;;;;;;;20.20;10.37;;;;;;;-7.09;83.90;92643.67;1815233;79;21199;-76
2020/12/04 04:02:13;;;;;;;23.10;12.00;;;;;;;-7.09;83.57;92642.89;1764695;80;21649;-82
2020/12/04 04:04:41;;;;;;;33.23;16.73;;;;;;;-7.12;83.41;92636.34;1806055;79;21247;-79
2020/12/04 04:07:10;;;;;;;35.50;15.27;;;;;;;-7.15;83.67;92638.81;1780561;80;21166;-80
2020/12/04 04:09:38;;;;;;;19.80;9.27;;;;;;;-7.17;83.71;92644.41;1747097;79;21423;-78
2020/12/04 04:12:07;;;;;;;19.40;10.13;;;;;;;-7.24;82.82;92638.78;1797689;78;21806;-78
2020/12/04 04:14:35;;;;;;;24.50;12.40;;;;;;;-7.28;82.73;92631.23;1781470;79;21183;-76
2020/12/04 04:17:04;;;;;;;21.27;10.60;;;;;;;-7.28;82.93;92631.23;1794345;79;21159;-78
2020/12/04 04:19:32;;;;;;;17.63;9.77;;;;;;;-7.29;82.80;92645.53;1815924;79;21198;-78
2020/12/04 04:22:00;;;;;;;35.60;15.60;;;;;;;-7.30;82.81;92637.89;1775807;80;21713;-78
2020/12/04 04:24:28;;;;;;;57.37;23.57;;;;;;;-7.35;83.03;92637.48;1771944;80;21204;-79
2020/12/04 04:26:57;;;;;;;57.30;25.37;;;;;;;-7.35;83.09;92638.25;1791933;79;21191;-77
2020/12/04 04:29:26;;;;;;;48.90;21.70;;;;;;;-7.37;82.81;92643.59;1792853;79;21211;-78
2020/12/04 04:31:55;;;;;;;32.90;15.70;;;;;;;-7.39;82.84;92650.51;1808226;79;21171;-78
2020/12/04 04:34:23;;;;;;;50.37;25.10;;;;;;;-7.37;82.86;92629.87;1777166;80;21195;-77
2020/12/04 04:36:52;;;;;;;49.97;21.40;;;;;;;-7.39;82.99;92641.81;1812988;79;21369;-81
2020/12/04 04:39:22;;;;;;;53.10;24.27;;;;;;;-7.40;83.08;92641.03;1777072;79;21211;-81
2020/12/04 04:41:57;;;;;;;42.87;19.33;;;;;;;-7.41;83.29;92646.60;1798494;79;21486;-78
2020/12/04 04:44:25;;;;;;;;;;;;;;;-7.41;82.95;92647.41;1790866;79;21167;-77
2020/12/04 04:47:03;;;;;;;19.90;8.93;;;;;;;-7.39;83.30;92640.49;1784544;78;20444;-78
2020/12/04 04:49:36;;;;;;;10.50;5.60;;;;;;;-7.39;83.42;92637.30;1722321;83;21214;-76
2020/12/04 04:52:06;;;;;;;9.33;5.30;;;;;;;-7.38;83.73;92638.86;1788175;80;21129;-78
2020/12/04 04:54:36;;;;;;;11.90;6.40;;;;;;;-7.32;83.83;92644.03;1737531;80;21171;-76
2020/12/04 04:57:07;;;;;;;8.50;5.73;;;;;;;-7.26;83.95;92640.16;1811636;78;21159;-79
2020/12/04 04:59:36;;;;;;;15.63;8.80;;;;;;;-7.23;84.17;92655.41;1787679;77;21147;-79
2020/12/04 05:02:05;;;;;;;29.73;14.00;;;;;;;-7.19;84.60;92653.72;1827541;78;21795;-78
2020/12/04 05:04:41;;;;;;;27.87;13.23;;;;;;;-7.17;84.13;92666.09;1779475;79;21175;-74
2020/12/04 05:07:09;;;;;;;24.17;12.10;;;;;;;-7.24;83.25;92657.27;1812259;79;21630;-81
2020/12/04 05:09:40;;;;;;;21.20;10.90;;;;;;;-7.35;83.11;92659.39;1758049;79;21189;-79
2020/12/04 05:12:09;;;;;;;34.97;16.37;;;;;;;-7.35;83.15;92667.86;1763753;79;21191;-78
2020/12/04 05:14:38;;;;;;;48.37;22.60;;;;;;;-7.36;83.19;92657.06;1769587;79;21192;-78
2020/12/04 05:17:08;;;;;;;53.60;24.57;;;;;;;-7.39;83.57;92647.87;1792532;78;21370;-82
2020/12/04 05:19:38;;;;;;;44.27;19.33;;;;;;;-7.40;83.82;92644.22;1825359;78;21188;-79
2020/12/04 05:22:11;;;;;;;27.73;14.17;;;;;;;-7.44;83.35;92647.23;1822443;78;21190;-78
2020/12/04 05:24:40;;;;;;;24.63;13.73;;;;;;;-7.51;82.97;92658.76;1842198;77;21504;-79
2020/12/04 05:27:29;;;;;;;64.93;23.03;;;;;;;-7.60;82.96;92654.72;1828624;77;22256;-76
2020/12/04 05:29:58;;;;;;;25.93;12.77;;;;;;;-7.60;84.30;92666.09;1813617;77;21160;-80
2020/12/04 05:32:27;;;;;;;31.00;16.20;;;;;;;-7.54;84.50;92664.09;1838952;77;21119;-80
2020/12/04 05:35:07;;;;;;;57.17;23.30;;;;;;;-7.52;84.27;92675.14;1828562;78;21158;-76
2020/12/04 05:37:35;;;;;;;33.90;16.10;;;;;;;-7.53;83.98;92662.23;1791289;80;21155;-76
2020/12/04 05:40:04;;;;;;;14.63;6.90;;;;;;;-7.54;83.92;92656.71;1717945;82;21363;-77
2020/12/04 05:42:37;;;;;;;25.83;9.70;;;;;;;-7.55;84.12;92655.94;1752700;81;21184;-80
2020/12/04 05:45:05;;;;;;;38.63;18.43;;;;;;;-7.54;84.53;92652.20;1756447;79;21159;-80
2020/12/04 05:47:41;;;;;;;53.70;24.23;;;;;;;-7.50;84.63;92649.74;1831724;76;21186;-76
2020/12/04 05:50:12;;;;;;;52.20;26.13;;;;;;;-7.46;84.38;92646.73;1840311;77;21173;-80
2020/12/04 05:52:41;;;;;;;52.00;24.00;;;;;;;-7.43;84.21;92648.78;1777726;80;21247;-78
2020/12/04 05:55:10;;;;;;;27.80;13.33;;;;;;;-7.42;83.95;92642.41;1721933;80;21160;-77
2020/12/04 05:57:53;;;;;;;30.17;15.03;;;;;;;-7.42;83.46;92638.45;1797054;77;21454;-79
2020/12/04 06:00:22;;;;;;;27.30;13.87;;;;;;;-7.41;83.42;92632.08;1848023;77;21544;-77
2020/12/04 06:03:02;;;;;;;25.20;12.00;;;;;;;-7.37;83.39;92640.95;1810587;77;21203;-75
2020/12/04 06:05:30;;;;;;;15.33;8.13;;;;;;;-7.37;83.36;92635.16;1789530;77;22106;-80
2020/12/04 06:08:04;;;;;;;9.40;5.20;;;;;;;-7.43;83.54;92637.67;1853126;77;21653;-76
2020/12/04 06:10:34;;;;;;;12.28;5.58;;;;;;;-7.49;84.09;92633.59;1746606;80;21694;-76
2020/12/04 06:13:02;;;;;;;30.27;12.03;;;;;;;-7.48;84.71;92632.53;1786609;78;21198;-74
2020/12/04 06:15:32;;;;;;;44.43;20.83;;;;;;;-7.43;85.27;92637.67;1761379;79;21131;-76
2020/12/04 06:18:07;;;;;;;44.07;21.93;;;;;;;-7.35;85.04;92633.52;1798565;77;21263;-78
2020/12/04 06:20:50;;;;;;;54.47;25.63;;;;;;;-7.27;84.90;92624.08;1794870;78;21160;-81
2020/12/04 06:23:20;;;;;;;45.43;23.93;;;;;;;-7.17;84.77;92634.39;1763401;77;21184;-75
2020/12/04 06:26:00;;;;;;;45.03;23.33;;;;;;;-7.12;84.37;92635.02;1842829;77;21167;-75
2020/12/04 06:28:38;;;;;;;34.13;18.00;;;;;;;-7.12;83.90;92633.70;1780387;77;21104;-79
2020/12/04 06:31:12;;;;;;;45.13;20.60;;;;;;;-7.10;84.19;92638.16;1816921;78;21214;-77
2020/12/04 06:33:51;;;;;;;30.60;15.88;;;;;;;-7.06;84.32;92642.84;1812967;77;21155;-79
2020/12/04 06:36:34;;;;;;;48.73;23.20;;;;;;;-7.02;84.54;92645.88;1784549;78;21155;-77
2020/12/04 06:39:04;;;;;;;;;;;;;;;-6.96;84.24;92639.36;1764032;79;21592;-79
2020/12/04 06:41:35;;;;;;;42.90;19.67;;;;;;;-6.94;83.91;92633.78;1762719;80;20278;-78
2020/12/04 06:44:09;;;;;;;53.60;24.73;;;;;;;-6.93;84.00;92640.08;1772531;80;21200;-80
2020/12/04 06:46:43;;;;;;;44.13;20.17;;;;;;;-6.80;84.28;92642.94;1779936;77;21025;-81
2020/12/04 06:49:36;;;;;;;41.03;22.33;;;;;;;-6.46;84.22;92641.70;1830058;76;21124;-79
2020/12/04 06:52:14;;;;;;;48.87;23.70;;;;;;;-5.94;83.75;92645.75;1806792;77;21179;-80
2020/12/04 06:54:47;;;;;;;43.73;19.47;;;;;;;-5.14;81.97;92645.31;1785256;79;21688;-79
2020/12/04 06:57:18;;;;;;;52.20;24.07;;;;;;;-4.59;80.21;92643.70;1798881;77;21972;-80
2020/12/04 06:59:46;;;;;;;51.10;25.37;;;;;;;-4.28;78.09;92653.47;1832397;77;21290;-78
2020/12/04 07:02:18;;;;;;;47.37;25.03;;;;;;;-3.89;77.29;92649.41;1774065;80;21206;-77
2020/12/04 07:04:52;;;;;;;41.20;21.23;;;;;;;-3.44;75.70;92651.61;1839901;77;21691;-76
2020/12/04 07:07:25;;;;;;;34.13;19.13;;;;;;;-3.12;74.21;92646.64;1831219;77;21184;-79
2020/12/04 07:10:03;;;;;;;48.40;25.03;;;;;;;-2.84;73.34;92652.13;1810193;77;22228;-81
2020/12/04 07:12:35;;;;;;;47.07;22.93;;;;;;;-2.56;71.75;92660.81;1811254;77;21162;-80
2020/12/04 07:15:03;;;;;;;45.93;24.43;;;;;;;-2.37;70.52;92657.08;1819036;77;21192;-78
2020/12/04 07:17:31;;;;;;;39.43;22.97;;;;;;;-2.16;69.97;92658.84;1711951;83;21210;-79
2020/12/04 07:19:59;;;;;;;36.80;21.07;;;;;;;-1.89;69.27;92658.14;1841049;77;21610;-79
2020/12/04 07:22:28;;;;;;;35.75;19.42;;;;;;;-1.70;68.85;92653.55;1792165;78;21365;-78
2020/12/04 07:24:56;;;;;;;34.92;19.42;;;;;;;-1.53;68.05;92654.63;1806346;77;21419;-78
2020/12/04 07:27:28;;;;;;;38.92;20.90;;;;;;;-1.36;67.44;92659.47;1820125;78;21447;-80
2020/12/04 07:29:56;;;;;;;42.93;22.95;;;;;;;-1.17;67.28;92648.94;1810037;78;21254;-81
2020/12/04 07:32:25;;;;;;;51.50;30.82;;;;;;;-0.90;66.56;92650.06;1787745;80;21229;-78
2020/12/04 07:34:53;;;;;;;50.70;32.45;;;;;;;-0.63;65.50;92655.13;1817295;78;22083;-78
2020/12/04 07:37:29;;;;;;;31.97;21.48;;;;;;;-0.52;64.69;92660.19;1787649;78;21216;-77
2020/12/04 07:39:57;;;;;;;47.13;26.42;;;;;;;-0.53;65.05;92655.17;1761391;80;21156;-78
2020/12/04 07:42:26;;;;;;;26.95;15.58;;;;;;;-0.38;63.84;92657.06;1795040;77;21731;-78
2020/12/04 07:44:56;;;;;;;30.02;16.57;;;;;;;-0.05;64.22;92647.92;1840916;77;22054;-77
2020/12/04 07:47:25;;;;;;;51.30;29.18;;;;;;;0.43;63.96;92648.60;1776894;80;21367;-79
2020/12/04 07:49:56;;;;;;;24.60;13.25;;;;;;;0.81;62.11;92645.74;1741988;80;21167;-78
2020/12/04 07:52:33;;;;;;;47.38;28.70;;;;;;;1.30;61.17;92639.20;1786761;79;21028;-81
2020/12/04 07:55:04;;;;;;;47.33;28.02;;;;;;;1.81;58.42;92636.83;1810799;78;21199;-80
2020/12/04 07:58:06;;;;;;;51.65;29.00;;;;;;;1.99;57.17;92635.75;1818629;78;21138;-81
2020/12/04 08:00:34;;;;;;;44.65;27.45;;;;;;;2.04;56.57;92638.14;1783968;79;21167;-79
2020/12/04 08:03:13;;;;;;;52.05;32.20;;;;;;;2.24;57.78;92631.53;1836462;77;21210;-78
2020/12/04 08:05:41;;;;;;;40.05;24.52;;;;;;;2.36;56.18;92632.66;1845628;77;21206;-76
2020/12/04 08:08:10;;;;;;;47.48;27.80;;;;;;;2.49;56.83;92629.20;1792763;77;21206;-77
2020/12/04 08:10:41;;;;;;;37.30;23.30;;;;;;;2.57;55.85;92625.47;1788641;78;21187;-81
2020/12/04 08:13:09;;;;;;;24.12;14.83;;;;;;;2.61;56.59;92620.92;1835067;76;22322;-77
2020/12/04 08:15:42;;;;;;;23.60;13.50;;;;;;;2.75;56.83;92623.59;1820532;77;21171;-81
2020/12/04 08:18:11;;;;;;;31.95;20.25;;;;;;;2.80;57.13;92625.38;1810346;78;21195;-75
2020/12/04 08:20:41;;;;;;;36.53;22.15;;;;;;;2.91;56.70;92620.14;1795088;79;21242;-76
2020/12/04 08:23:10;;;;;;;54.10;30.70;;;;;;;3.08;56.30;92623.58;1844195;77;21175;-82
2020/12/04 08:25:38;;;;;;;55.90;33.95;;;;;;;3.43;56.13;92624.34;1788198;80;21400;-78
2020/12/04 08:28:07;;;;;;;54.95;32.28;;;;;;;3.74;54.82;92622.52;1779591;78;21025;-82
2020/12/04 08:30:39;;;;;;;60.58;34.48;;;;;;;3.87;54.97;92617.07;1829149;78;21171;-80
2020/12/04 08:33:06;;;;;;;37.65;22.00;;;;;;;4.01;54.67;92608.90;1847306;77;21191;-78
2020/12/04 08:35:42;;;;;;;52.43;32.50;;;;;;;4.30;55.86;92609.88;1697074;84;21207;-80
2020/12/04 08:38:16;;;;;;;58.90;36.45;;;;;;;4.78;54.40;92603.80;1799718;78;21441;-80
2020/12/04 08:40:58;;;;;;;66.57;41.98;;;;;;;4.97;52.41;92598.69;1765173;80;21442;-80
2020/12/04 08:43:30;;;;;;;61.10;37.48;;;;;;;4.95;51.63;92596.93;1713313;81;21218;-79
2020/12/04 08:45:58;;;;;;;54.60;35.83;;;;;;;5.13;52.36;92587.57;1819037;76;21970;-78
2020/12/04 08:48:30;;;;;;;51.30;31.70;;;;;;;5.38;52.10;92578.77;1857532;77;21314;-81
2020/12/04 08:51:04;;;;;;;39.35;26.57;;;;;;;5.79;52.56;92577.84;1844973;77;22389;-82
2020/12/04 08:53:34;;;;;;;24.87;16.77;;;;;;;6.17;52.04;92577.70;1830776;78;21042;-77
2020/12/04 08:56:04;;;;;;;16.10;11.60;;;;;;;6.19;51.49;92578.66;1735473;81;21449;-81
2020/12/04 08:58:33;;;;;;;12.55;8.93;;;;;;;6.16;52.11;92577.48;1851506;76;21164;-82
2020/12/04 09:01:01;;;;;;;31.35;21.02;;;;;;;6.43;52.11;92581.11;1843375;76;21221;-80
2020/12/04 09:03:30;;;;;;;29.18;20.68;;;;;;;6.75;51.23;92572.94;1809082;78;21321;-79
2020/12/04 09:05:59;;;;;;;25.90;17.98;;;;;;;6.74;51.16;92572.77;1823217;78;21477;-80
2020/12/04 09:08:27;;;;;;;32.28;21.12;;;;;;;6.52;51.18;92580.91;1803962;78;21726;-78
2020/12/04 09:10:55;;;;;;;46.50;29.55;;;;;;;6.14;52.19;92583.09;1851735;75;21152;-83
2020/12/04 09:13:24;;;;;;;47.75;29.27;;;;;;;5.76;52.28;92581.34;1794479;78;21136;-77
2020/12/04 09:15:52;;;;;;;48.55;29.65;;;;;;;5.38;52.80;92575.52;1804157;78;22290;-79
2020/12/04 09:18:21;;;;;;;42.00;26.68;;;;;;;5.06;54.08;92568.68;1846072;77;21267;-76
2020/12/04 09:20:49;;;;;;;33.38;21.97;;;;;;;4.76;54.68;92578.39;1731830;82;21276;-84
2020/12/04 09:23:18;;;;;;;32.95;20.08;;;;;;;4.43;56.08;92573.99;1806482;78;21155;-82
2020/12/04 09:25:46;;;;;;;24.25;15.72;;;;;;;4.28;57.37;92575.83;1812055;78;21214;-78
2020/12/04 09:28:17;;;;;;;17.15;11.22;;;;;;;4.31;58.40;92571.05;1814854;78;21362;-80
2020/12/04 09:30:45;;;;;;;23.20;12.03;;;;;;;4.34;59.27;92568.38;1806009;79;21162;-82
2020/12/04 09:33:14;;;;;;;19.50;10.60;;;;;;;4.47;59.36;92571.51;1786052;80;21171;-80
2020/12/04 09:35:42;;;;;;;17.80;11.35;;;;;;;4.49;59.03;92560.38;1800718;79;21211;-81
2020/12/04 09:38:12;;;;;;;10.43;6.30;;;;;;;4.49;59.72;92556.34;1788579;79;21413;-77
2020/12/04 09:40:43;;;;;;;7.15;4.80;;;;;;;4.51;60.25;92547.30;1755994;80;21377;-80
2020/12/04 09:43:13;;;;;;;17.60;9.13;;;;;;;4.61;60.65;92550.62;1744700;79;21195;-83
2020/12/04 09:45:43;;;;;;;30.25;18.35;;;;;;;4.63;60.15;92545.06;1773686;80;21152;-83
2020/12/04 09:48:11;;;;;;;21.82;13.85;;;;;;;4.67;59.29;92541.63;1710693;83;21259;-79
2020/12/04 09:50:40;;;;;;;24.02;13.05;;;;;;;4.64;60.23;92535.06;1816115;78;21038;-78
2020/12/04 09:53:09;;;;;;;11.30;7.55;;;;;;;4.59;61.71;92529.47;1731755;81;21374;-80
2020/12/04 09:55:37;;;;;;;7.80;5.78;;;;;;;4.49;61.92;92536.92;1775133;79;21397;-79
2020/12/04 09:58:05;;;;;;;3.40;2.90;;;;;;;4.43;62.83;92540.34;1766861;79;21016;-78
2020/12/04 10:00:35;;;;;;;20.20;14.50;;;;;;;4.43;62.83;92540.34;1757691;79;21185;-80
2020/12/04 10:03:04;;;;;;;27.22;18.20;;;;;;;4.42;63.03;92538.23;1793442;79;21192;-81
2020/12/04 10:05:33;;;;;;;31.85;19.25;;;;;;;4.36;61.04;92546.45;1750559;80;21403;-82
2020/12/04 10:08:01;;;;;;;48.80;20.05;;;;;;;4.24;60.93;92549.47;1728460;81;21248;-80
2020/12/04 10:10:30;;;;;;;37.42;21.05;;;;;;;4.11;60.40;92554.41;1736287;80;21494;-79
2020/12/04 10:12:58;;;;;;;36.68;20.17;;;;;;;4.01;60.71;92555.86;1804643;78;22357;-79
2020/12/04 10:18:01;;;;;;;40.23;23.63;;;;;;;3.90;61.13;92544.27;1883426;76;22565;-80
2020/12/04 10:20:30;;;;;;;23.42;12.88;;;;;;;3.82;62.99;92564.19;1801392;77;21613;-78
2020/12/04 10:22:59;;;;;;;5.20;3.90;;;;;;;3.70;64.10;92560.45;1805897;78;21629;-79
2020/12/04 10:25:27;;;;;;;4.42;3.20;;;;;;;3.65;65.26;92566.95;1808517;77;21224;-79
2020/12/04 10:27:55;;;;;;;3.00;2.20;;;;;;;3.61;66.01;92564.23;1835738;77;21286;-80
2020/12/04 10:30:23;;;;;;;2.72;2.35;;;;;;;3.59;66.97;92557.09;1814811;78;21457;-81
2020/12/04 10:32:52;;;;;;;10.63;6.05;;;;;;;3.52;67.04;92554.34;1796989;78;21176;-81
2020/12/04 10:35:20;;;;;;;14.83;8.78;;;;;;;3.49;66.89;92564.48;1778510;79;21259;-82
2020/12/04 10:37:48;;;;;;;20.27;11.88;;;;;;;3.49;66.52;92559.69;1778575;80;21209;-78
2020/12/04 10:43:49;;;;;;;21.50;11.40;;;;;;;3.48;65.02;92560.27;1772147;80;21205;-77
2020/12/04 10:46:17;;;;;;;21.45;12.63;;;;;;;3.49;65.23;92560.45;1785229;80;21186;-78
2020/12/04 10:48:46;;;;;;;23.45;12.95;;;;;;;3.52;64.80;92560.30;1736268;81;21517;-77
2020/12/04 10:51:14;;;;;;;24.20;13.70;;;;;;;3.54;64.81;92556.10;1715759;78;21194;-75
2020/12/04 10:53:43;;;;;;;28.38;17.52;;;;;;;3.57;64.65;92552.68;1843648;77;21159;-75
2020/12/04 10:56:12;;;;;;;28.00;18.90;;;;;;;3.61;65.20;92551.34;1822717;78;21178;-76
2020/12/04 10:58:42;;;;;;;29.60;18.92;;;;;;;3.62;65.63;92556.36;1772776;79;21190;-77
2020/12/04 11:01:14;;;;;;;16.80;10.40;;;;;;;3.61;65.85;92553.48;1760201;78;21629;-75
2020/12/04 11:05:29;;;;;;;14.15;9.85;;;;;;;3.61;67.08;92548.65;1817103;77;21195;-77
2020/12/04 11:06:20;;;;;;;13.58;8.65;;;;;;;3.58;67.32;92534.05;1781095;78;21697;-75
2020/12/04 11:08:49;;;;;;;12.68;7.60;;;;;;;3.58;67.74;92533.28;1773447;80;21415;-75
2020/12/04 11:11:20;;;;;;;10.63;7.12;;;;;;;3.65;68.08;92536.80;1829108;78;21470;-77
2020/12/04 11:13:48;;;;;;;20.62;14.93;;;;;;;3.80;68.59;92543.60;1805142;78;22406;-76
2020/12/04 11:16:16;;;;;;;17.48;10.20;;;;;;;3.94;69.21;92539.67;1813807;78;21167;-75
2020/12/04 11:18:44;;;;;;;18.60;11.35;;;;;;;4.05;67.65;92537.83;1827760;77;21136;-76
2020/12/04 11:21:12;;;;;;;11.80;7.25;;;;;;;4.19;67.19;92539.84;1833827;78;21281;-75
2020/12/04 11:23:40;;;;;;;8.98;5.85;;;;;;;4.35;67.42;92534.92;1873811;76;20994;-75
2020/12/04 11:26:09;;;;;;;6.95;5.25;;;;;;;4.71;65.74;92531.05;1835006;76;21621;-75
2020/12/04 11:28:38;;;;;;;7.12;5.42;;;;;;;4.71;65.74;92531.05;1846156;77;21192;-75
2020/12/04 11:31:06;;;;;;;11.63;6.72;;;;;;;5.01;64.62;92538.84;1812239;77;21188;-76
2020/12/04 11:33:34;;;;;;;21.68;14.03;;;;;;;5.01;64.62;92538.84;1780367;79;21568;-75
2020/12/04 11:36:03;;;;;;;14.15;9.13;;;;;;;5.18;63.18;92537.91;1798199;78;21620;-80
2020/12/04 11:38:32;;;;;;;6.87;5.03;;;;;;;5.30;63.49;92535.64;1829803;78;22166;-75
2020/12/04 11:41:00;;;;;;;8.05;5.20;;;;;;;5.35;63.42;92527.16;1800614;78;21194;-74
2020/12/04 11:43:28;;;;;;;11.90;6.97;;;;;;;5.36;64.10;92522.54;1791811;79;21157;-75